KOEO/OEO METAR and TAF weather

Enter ICAO airport designator
Station Type Date Time Source
KOEO METAR 2020/04/09 09:15 UTC NOAA

KOEO 090915Z AUTO 28011KT 10SM CLR 01/M03 A2983 RMK AO2 T00051035


Station Type Date Time Source
KOEO Decoded METAR 2020/04/09 09:15 UTC NOAA

Osceola, L O Simenstad Municipal Airport, WI, United States (KOEO) 45-18-31N 092-41-24W
Apr 09, 2020 - 05:15 AM EDT / 2020.04.09 0915 UTC
Wind: from the W (280 degrees) at 13 MPH (11 KT):0
Visibility: 10 mile(s):0
Sky conditions: clear
Temperature: 32.9 F (0.5 C)
Windchill: 23 F (-5 C):1
Dew Point: 25.7 F (-3.5 C)
Relative Humidity: 74%
Pressure (altimeter): 29.83 in. Hg (1010 hPa)
ob: KOEO 090915Z AUTO 28011KT 10SM CLR 01/M03 A2983 RMK AO2 T00051035
cycle: 9

Station Type Date Time Source
KOEO TAF UTC NOAA

Error!

Example: see airport list